sim
Sign-in with your pilot id or email,
or register
Callsign
Passwort

Schedule Details

Flight Number: OEO4627
Departure: London Heathrow Airport (EGLL) at 14:25
Arrival: Munich Airport (EDDM) at 16:10

Weather Information
Getting current METAR information for EGLL 010020Z AUTO 25005KT 9999 SCT012 13/12 Q1000 NOSIG
Getting current METAR information for EDDM 010020Z 33001KT 1500 0500NE R08L/0550D R08R/0700N BCFG NSC 05/05 Q1011 NOSIG

Schedule Frequency

Route Map